createdAt,value
2023-02-27T00:00:45.090Z,50.874977
2023-02-27T00:01:45.030Z,50.874977
2023-02-27T03:54:48.368Z,50.875706
2023-02-27T03:55:48.350Z,50.875324
2023-02-27T03:56:48.343Z,50.875397
2023-02-27T03:57:49.352Z,50.875381
2023-02-27T03:58:48.319Z,50.875404
2023-02-27T03:59:48.324Z,50.875317
2023-02-27T04:00:48.317Z,50.875336
2023-02-27T04:01:48.322Z,50.875378
2023-02-27T04:02:48.326Z,50.875412
2023-02-27T04:03:48.334Z,50.875340
2023-02-27T04:04:48.275Z,50.875351
2023-02-27T04:05:48.285Z,50.875301
2023-02-27T04:06:48.256Z,50.875305
2023-02-27T04:07:48.263Z,50.874977
2023-02-27T04:08:48.259Z,50.875214
2023-02-27T04:09:48.217Z,50.875275
2023-02-27T04:10:48.222Z,50.875305
2023-02-27T04:11:48.193Z,50.875324
2023-02-27T04:12:48.205Z,50.875359
2023-02-27T04:13:48.189Z,50.875351
2023-02-27T04:14:48.155Z,50.875404
2023-02-27T04:15:48.196Z,50.875408
2023-02-27T04:16:48.145Z,50.875313
2023-02-27T04:17:48.168Z,50.875328
2023-02-27T04:18:48.157Z,50.875576
2023-02-27T04:19:48.104Z,50.875423
2023-02-27T04:20:48.105Z,50.875435
2023-02-27T04:21:48.104Z,50.875465
2023-02-27T04:22:48.085Z,50.875465
2023-02-27T04:23:48.082Z,50.875465
2023-02-27T04:24:48.077Z,50.875465
2023-02-27T04:25:48.049Z,50.875465
2023-02-27T04:26:48.040Z,50.875465
2023-02-27T04:27:48.034Z,50.875465
2023-02-27T04:28:48.027Z,50.861282
2023-02-27T04:29:48.023Z,50.875648
2023-02-27T04:30:48.042Z,50.875515
2023-02-27T04:31:48.159Z,50.875671
2023-02-27T04:32:48.025Z,50.875507
2023-02-27T04:33:48.985Z,50.875404
2023-02-27T04:34:48.000Z,50.875404
2023-02-27T04:35:47.988Z,50.875294
2023-02-27T04:36:47.957Z,50.875290
2023-02-27T04:37:47.956Z,50.875290
2023-02-27T04:38:47.975Z,50.875290
2023-02-27T04:39:47.946Z,50.875290
2023-02-27T04:40:47.942Z,50.875290
2023-02-27T04:41:47.934Z,50.875290
2023-02-27T04:42:47.919Z,50.875290
2023-02-27T04:43:47.909Z,50.875290
2023-02-27T04:44:47.861Z,50.875290
2023-02-27T04:45:47.874Z,50.875290
2023-02-27T04:46:47.863Z,50.875290
2023-02-27T04:47:47.855Z,50.875290
2023-02-27T04:48:47.862Z,50.875290
2023-02-27T04:49:47.836Z,50.875290
2023-02-27T04:50:47.819Z,50.875290
2023-02-27T04:51:47.810Z,50.875290
2023-02-27T04:52:47.800Z,50.875290
2023-02-27T04:53:47.816Z,50.875290
2023-02-27T04:54:47.789Z,50.875290
2023-02-27T04:55:47.780Z,50.875290
2023-02-27T04:56:47.787Z,50.875290
2023-02-27T04:57:47.759Z,50.875290
2023-02-27T04:58:47.754Z,50.875290
2023-02-27T04:59:47.745Z,50.875290
2023-02-27T05:00:47.735Z,50.875290
2023-02-27T05:01:47.945Z,50.875290
2023-02-27T05:02:47.738Z,50.875290
2023-02-27T05:03:47.714Z,50.875381
2023-02-27T05:04:47.683Z,50.875397
2023-02-27T05:05:48.676Z,50.875420
2023-02-27T05:06:47.690Z,50.875370
2023-02-27T05:07:47.667Z,50.875214
2023-02-27T05:08:47.667Z,50.875359
2023-02-27T05:09:47.675Z,50.875389
2023-02-27T05:10:47.640Z,50.875370
2023-02-27T05:11:47.619Z,50.875401
2023-02-27T05:12:47.608Z,50.875320
2023-02-27T05:13:47.624Z,50.875374
2023-02-27T05:14:47.594Z,50.875298
2023-02-27T05:15:47.617Z,50.875340
2023-02-27T05:16:47.614Z,50.875240
2023-02-27T05:17:47.619Z,50.875263
2023-02-27T05:18:47.565Z,50.875256
2023-02-27T05:19:47.561Z,50.875244
2023-02-27T05:20:47.550Z,50.875271
2023-02-27T05:21:47.538Z,50.875294
2023-02-27T05:22:47.546Z,50.875408
2023-02-27T05:23:47.523Z,50.875374
2023-02-27T05:24:47.520Z,50.875423
2023-02-27T05:25:47.480Z,50.875320
2023-02-27T05:26:47.475Z,50.875370
2023-02-27T05:27:47.492Z,50.875378
2023-02-27T05:28:47.482Z,50.875385
2023-02-27T05:29:47.450Z,50.875446
2023-02-27T05:30:47.435Z,50.875477
2023-02-27T05:31:47.546Z,50.875561
2023-02-27T05:32:47.430Z,50.875526
2023-02-27T05:33:47.414Z,50.875370
2023-02-27T05:34:47.402Z,50.875473
2023-02-27T05:35:47.440Z,50.875393
2023-02-27T05:36:47.397Z,50.875420
2023-02-27T05:37:47.360Z,50.875286
2023-02-27T05:38:47.362Z,50.875340
2023-02-27T05:39:47.390Z,50.875286
2023-02-27T05:40:47.367Z,50.875233
2023-02-27T05:41:47.336Z,50.875282
2023-02-27T05:42:47.319Z,50.875355
2023-02-27T05:43:47.318Z,50.875042
2023-02-27T05:44:47.304Z,50.875057
2023-02-27T05:45:47.369Z,50.875320
2023-02-27T05:46:47.299Z,50.875332
2023-02-27T05:47:47.280Z,50.875347
2023-02-27T05:48:47.306Z,50.875355
2023-02-27T05:49:47.274Z,50.875343
2023-02-27T05:50:47.261Z,50.875439
2023-02-27T05:51:47.868Z,50.875290
2023-02-27T05:52:47.238Z,50.875214
2023-02-27T05:53:47.280Z,50.875336
2023-02-27T05:54:47.248Z,50.875126
2023-02-27T05:55:47.224Z,50.875168
2023-02-27T05:56:47.217Z,50.875317
2023-02-27T05:57:47.206Z,50.875416
2023-02-27T05:58:47.209Z,50.875343
2023-02-27T05:59:47.227Z,50.875465
2023-02-27T06:00:47.189Z,50.875351
2023-02-27T06:01:47.169Z,50.875347
2023-02-27T06:02:47.189Z,50.875355
2023-02-27T06:03:47.171Z,50.875305
2023-02-27T06:04:47.146Z,50.875229
2023-02-27T06:05:47.157Z,50.875271
2023-02-27T06:06:47.228Z,50.875217
2023-02-27T06:07:47.112Z,50.875141
2023-02-27T06:08:47.128Z,50.875038
2023-02-27T06:09:47.089Z,50.874908
2023-02-27T06:10:47.095Z,50.875351
2023-02-27T06:11:47.068Z,50.875168
2023-02-27T06:12:47.062Z,50.875130
2023-02-27T06:13:47.070Z,50.875217
2023-02-27T06:14:47.067Z,50.875168
2023-02-27T06:15:47.042Z,50.875134
2023-02-27T06:16:48.052Z,50.875118
2023-02-27T06:17:47.065Z,50.875134
2023-02-27T06:18:47.024Z,50.875046
2023-02-27T06:19:47.514Z,50.875271
2023-02-27T06:20:46.988Z,50.875538
2023-02-27T06:21:46.983Z,50.875740
2023-02-27T06:22:46.959Z,50.875645
2023-02-27T06:23:46.945Z,50.875420
2023-02-27T06:24:46.957Z,50.875469
2023-02-27T06:25:46.915Z,50.875488
2023-02-27T06:26:46.922Z,50.875530
2023-02-27T06:27:46.899Z,50.875275
2023-02-27T06:28:46.907Z,50.875454
2023-02-27T06:29:46.856Z,50.875381
2023-02-27T06:30:46.867Z,50.875340
2023-02-27T06:31:46.874Z,50.875355
2023-02-27T06:32:46.816Z,50.875450
2023-02-27T06:33:46.796Z,50.875420
2023-02-27T06:34:46.799Z,50.875404
2023-02-27T06:35:46.794Z,50.875450
2023-02-27T06:36:46.768Z,50.875267
2023-02-27T06:37:46.755Z,50.875439
2023-02-27T06:39:01.789Z,50.875324
2023-02-27T06:39:46.766Z,50.875465
2023-02-27T06:40:49.954Z,50.875362
2023-02-27T06:41:46.750Z,50.875351
2023-02-27T06:42:46.713Z,50.875397
2023-02-27T06:43:46.695Z,50.875393
2023-02-27T06:44:46.693Z,50.875057
2023-02-27T06:45:46.689Z,50.875378
2023-02-27T06:46:46.669Z,50.875427
2023-02-27T06:47:46.656Z,50.875572
2023-02-27T06:48:46.652Z,50.875286
2023-02-27T06:49:46.645Z,50.875507
2023-02-27T06:50:46.627Z,50.875397
2023-02-27T06:51:47.622Z,50.875408
2023-02-27T06:52:46.608Z,50.875408
2023-02-27T06:53:46.593Z,50.875381
2023-02-27T06:54:46.584Z,50.875511
2023-02-27T06:55:46.596Z,50.875519
2023-02-27T06:56:46.570Z,50.875404
2023-02-27T06:57:46.558Z,50.875587
2023-02-27T06:58:46.554Z,50.875584
2023-02-27T06:59:46.544Z,50.875568
2023-02-27T07:00:46.539Z,50.875568
2023-02-27T07:01:46.550Z,50.875568
2023-02-27T07:02:46.508Z,50.849617
2023-02-27T07:03:46.503Z,50.843082
2023-02-27T07:04:46.592Z,50.842472
2023-02-27T07:05:46.497Z,50.842472
2023-02-27T07:07:32.415Z,50.875275
2023-02-27T07:07:47.472Z,50.875454
2023-02-27T07:09:01.491Z,50.875454
2023-02-27T07:09:47.448Z,50.875401
2023-02-27T07:10:46.450Z,50.875408
2023-02-27T07:11:46.429Z,50.875347
2023-02-27T07:12:46.424Z,50.875423
2023-02-27T07:13:46.416Z,50.875256
2023-02-27T07:14:46.409Z,50.875229
2023-02-27T07:15:46.425Z,50.875431
2023-02-27T07:16:46.377Z,50.875431
2023-02-27T07:17:46.374Z,50.875431
2023-02-27T07:18:46.359Z,50.761337
2023-02-27T07:19:46.347Z,50.748688
2023-02-27T07:20:47.363Z,50.736069
2023-02-27T07:21:46.342Z,50.728344
2023-02-27T07:22:46.327Z,50.728344
2023-02-27T07:23:46.316Z,50.728344
2023-02-27T07:24:46.324Z,50.728344
2023-02-27T07:25:46.302Z,50.728344
2023-02-27T07:26:47.301Z,50.728344
2023-02-27T07:27:46.302Z,50.728344
2023-02-27T07:28:46.263Z,50.728344
2023-02-27T07:29:46.272Z,50.728344
2023-02-27T07:30:46.317Z,50.728344
2023-02-27T07:31:46.264Z,50.728344
2023-02-27T07:32:46.236Z,50.728344
2023-02-27T07:33:46.226Z,50.728344
2023-02-27T07:34:46.213Z,50.728344
2023-02-27T07:36:00.526Z,50.728344
2023-02-27T07:36:46.219Z,50.728344
2023-02-27T07:37:46.191Z,50.728344
2023-02-27T07:39:00.834Z,50.728344
2023-02-27T07:39:46.184Z,50.728344
2023-02-27T07:40:46.228Z,50.728344
2023-02-27T07:41:46.154Z,50.728344
2023-02-27T07:42:46.157Z,50.728344
2023-02-27T07:43:46.184Z,50.728344
2023-02-27T07:44:46.154Z,50.728344
2023-02-27T07:45:46.134Z,50.728344
2023-02-27T07:46:46.154Z,50.728344
2023-02-27T07:47:46.098Z,50.728344
2023-02-27T07:48:46.104Z,50.728344
2023-02-27T07:49:46.101Z,50.728344
2023-02-27T07:50:46.069Z,50.728344
2023-02-27T07:51:46.094Z,50.728344
2023-02-27T07:52:46.053Z,50.728344
2023-02-27T07:53:46.048Z,50.728344
2023-02-27T07:54:46.045Z,50.728344
2023-02-27T07:55:46.032Z,50.728344
2023-02-27T07:56:46.042Z,50.728344
2023-02-27T07:57:46.045Z,50.728344
2023-02-27T07:58:45.995Z,50.728344
2023-02-27T07:59:45.994Z,50.728344
2023-02-27T08:00:45.987Z,50.728344
2023-02-27T08:01:45.976Z,50.728344
2023-02-27T08:02:46.024Z,50.728344
2023-02-27T08:03:45.953Z,50.728344
2023-02-27T08:04:45.989Z,50.728344
2023-02-27T08:05:45.939Z,50.728344
2023-02-27T08:06:45.916Z,50.728344
2023-02-27T08:07:45.932Z,50.728344
2023-02-27T08:08:45.906Z,50.728344
2023-02-27T08:09:45.879Z,50.728344
2023-02-27T08:10:45.873Z,50.728344
2023-02-27T08:11:48.786Z,50.728344
2023-02-27T08:12:45.859Z,50.728344
2023-02-27T08:14:00.142Z,50.728344
2023-02-27T08:14:47.828Z,50.728344
2023-02-27T08:15:45.913Z,50.728344
2023-02-27T08:16:45.826Z,50.728344
2023-02-27T08:17:45.813Z,50.728344
2023-02-27T08:18:45.806Z,50.728344
2023-02-27T08:19:45.794Z,50.728344
2023-02-27T08:20:45.781Z,50.728344
2023-02-27T08:21:45.777Z,50.728344
2023-02-27T08:22:45.744Z,50.728344
2023-02-27T08:23:45.750Z,50.728344
2023-02-27T08:24:45.717Z,50.728344
2023-02-27T08:25:45.761Z,50.728344
2023-02-27T08:26:45.717Z,50.728344
2023-02-27T08:27:45.693Z,50.728344
2023-02-27T08:28:45.697Z,50.728344
2023-02-27T08:29:45.683Z,50.728344
2023-02-27T08:30:45.664Z,50.728344
2023-02-27T08:31:45.899Z,50.728344
2023-02-27T08:32:45.646Z,50.728344
2023-02-27T08:33:45.635Z,50.728344
2023-02-27T08:34:45.623Z,50.728344
2023-02-27T08:35:45.662Z,50.728344
2023-02-27T08:36:45.620Z,50.728344
2023-02-27T08:37:45.583Z,50.728344
2023-02-27T08:38:45.579Z,50.728344
2023-02-27T08:39:45.564Z,50.728344
2023-02-27T08:40:45.564Z,50.728344
2023-02-27T08:41:45.582Z,50.728344
2023-02-27T08:42:45.570Z,50.728344
2023-02-27T08:43:45.515Z,50.728344
2023-02-27T08:44:45.560Z,50.728344
2023-02-27T08:45:45.598Z,50.728344
2023-02-27T08:46:45.554Z,50.728344
2023-02-27T08:47:45.477Z,50.728344
2023-02-27T08:48:45.473Z,50.728344
